createdAt,value
2022-12-23T00:00:46.342Z,6.26
2022-12-23T00:03:25.393Z,6.26
2022-12-23T00:05:53.531Z,6.26
2022-12-23T00:08:21.893Z,6.30
2022-12-23T00:10:51.300Z,6.31
2022-12-23T00:13:37.879Z,6.33
2022-12-23T00:16:07.055Z,6.34
2022-12-23T00:18:34.786Z,6.36
2022-12-23T00:21:08.793Z,6.37
2022-12-23T00:23:39.574Z,6.39
2022-12-23T00:26:08.184Z,6.41
2022-12-23T00:28:35.804Z,6.41
2022-12-23T00:31:05.563Z,6.43
2022-12-23T00:33:36.690Z,6.44
2022-12-23T00:36:18.567Z,6.45
2022-12-23T00:39:05.295Z,6.46
2022-12-23T00:41:52.377Z,6.46
2022-12-23T00:44:20.221Z,6.47
2022-12-23T00:46:48.238Z,6.48
2022-12-23T00:49:36.028Z,6.51
2022-12-23T00:52:05.065Z,6.51
2022-12-23T00:54:32.857Z,6.54
2022-12-23T00:57:01.202Z,6.57
2022-12-23T00:59:28.966Z,6.59
2022-12-23T01:02:15.625Z,6.62
2022-12-23T01:05:02.155Z,6.63
2022-12-23T01:07:29.916Z,6.63
2022-12-23T01:09:57.622Z,6.64
2022-12-23T01:12:25.436Z,6.67
2022-12-23T01:14:53.119Z,6.69
2022-12-23T01:17:20.985Z,6.70
2022-12-23T01:19:48.949Z,6.72
2022-12-23T01:22:16.768Z,6.72
2022-12-23T01:24:44.445Z,6.74
2022-12-23T01:27:12.211Z,6.75
2022-12-23T01:29:39.815Z,6.76
2022-12-23T01:32:07.628Z,6.77
2022-12-23T01:34:37.590Z,6.77
2022-12-23T01:37:05.644Z,6.79
2022-12-23T01:39:33.359Z,6.81
2022-12-23T01:42:19.804Z,6.82
2022-12-23T01:44:50.549Z,6.82
2022-12-23T01:47:30.238Z,6.82
2022-12-23T01:50:05.307Z,6.83
2022-12-23T01:52:36.412Z,6.83
2022-12-23T01:55:04.293Z,6.84
2022-12-23T01:57:32.096Z,6.86
2022-12-23T02:00:18.592Z,6.86
2022-12-23T02:03:05.574Z,6.85
2022-12-23T02:05:34.593Z,6.83
2022-12-23T02:08:21.515Z,6.84
2022-12-23T02:10:52.234Z,6.84
2022-12-23T02:13:31.644Z,6.85
2022-12-23T02:16:17.782Z,6.85
2022-12-23T02:19:10.416Z,6.84
2022-12-23T02:21:57.271Z,6.83
2022-12-23T02:25:04.948Z,6.82
2022-12-23T02:27:48.541Z,6.80
2022-12-23T02:30:27.271Z,6.79
2022-12-23T02:33:21.380Z,6.80
2022-12-23T02:36:08.182Z,6.79
2022-12-23T02:39:18.818Z,6.79
2022-12-23T02:42:09.246Z,6.78
2022-12-23T02:45:00.971Z,6.77
2022-12-23T02:48:00.120Z,6.76
2022-12-23T02:50:30.647Z,6.73
2022-12-23T02:53:01.858Z,6.72
2022-12-23T02:55:33.598Z,6.71
2022-12-23T02:58:05.154Z,6.70
2022-12-23T03:00:33.158Z,6.69
2022-12-23T03:03:01.082Z,6.68
2022-12-23T03:05:34.059Z,6.67
2022-12-23T03:08:04.246Z,6.65
2022-12-23T03:11:02.714Z,6.63
2022-12-23T03:13:39.539Z,6.60
2022-12-23T03:16:24.342Z,6.58
2022-12-23T03:19:21.018Z,6.54
2022-12-23T03:22:14.814Z,6.48
2022-12-23T03:24:52.845Z,6.43
2022-12-23T03:27:49.994Z,6.40
2022-12-23T03:30:19.130Z,6.39
2022-12-23T03:33:00.410Z,6.35
2022-12-23T03:35:34.223Z,6.36
2022-12-23T03:38:03.185Z,6.34
2022-12-23T03:40:36.971Z,6.32
2022-12-23T03:43:09.045Z,6.29
2022-12-23T03:45:43.711Z,6.27
2022-12-23T03:48:24.330Z,6.27
2022-12-23T03:50:55.977Z,6.25
2022-12-23T03:53:27.674Z,6.21
2022-12-23T03:55:59.376Z,6.18
2022-12-23T03:58:42.248Z,6.16
2022-12-23T04:01:12.048Z,6.16
2022-12-23T04:04:01.709Z,6.16
2022-12-23T04:06:35.023Z,6.15
2022-12-23T04:09:03.333Z,6.15
2022-12-23T04:11:31.122Z,6.15
2022-12-23T04:13:58.822Z,6.16
2022-12-23T04:16:27.549Z,6.17
2022-12-23T04:18:55.798Z,6.18
2022-12-23T04:21:23.461Z,6.18
2022-12-23T04:23:51.472Z,6.17
2022-12-23T04:26:19.096Z,6.16
2022-12-23T04:28:46.743Z,6.15
2022-12-23T04:31:14.441Z,6.15
2022-12-23T04:33:42.162Z,6.15
2022-12-23T04:36:09.816Z,6.13
2022-12-23T04:38:37.469Z,6.12
2022-12-23T04:41:05.130Z,6.10
2022-12-23T04:43:32.874Z,6.07
2022-12-23T04:46:00.564Z,6.06
2022-12-23T04:48:28.227Z,6.05
2022-12-23T04:50:55.881Z,6.06
2022-12-23T04:53:23.537Z,6.05
2022-12-23T04:55:51.905Z,6.06
2022-12-23T04:58:22.171Z,6.06
2022-12-23T05:00:49.986Z,6.06
2022-12-23T05:03:18.126Z,6.08
2022-12-23T05:05:46.113Z,6.08
2022-12-23T05:08:13.762Z,6.09
2022-12-23T05:10:41.441Z,6.09
2022-12-23T05:13:09.058Z,6.09
2022-12-23T05:15:36.700Z,6.08
2022-12-23T05:18:04.594Z,6.08
2022-12-23T05:20:32.270Z,6.06
2022-12-23T05:22:59.943Z,6.06
2022-12-23T05:25:27.609Z,6.05
2022-12-23T05:27:55.338Z,6.04
2022-12-23T05:30:22.980Z,6.04
2022-12-23T05:32:54.482Z,6.04
2022-12-23T05:35:23.330Z,6.03
2022-12-23T05:37:51.713Z,6.02
2022-12-23T05:40:23.695Z,6.00
2022-12-23T05:42:53.262Z,5.98
2022-12-23T05:45:21.280Z,5.98
2022-12-23T05:47:48.919Z,5.99
2022-12-23T05:50:16.682Z,5.98
2022-12-23T05:52:44.282Z,5.97
2022-12-23T05:55:11.918Z,5.94
2022-12-23T05:57:39.565Z,5.92
2022-12-23T06:00:08.023Z,5.89
2022-12-23T06:02:40.916Z,5.86
2022-12-23T06:05:09.341Z,5.85
2022-12-23T06:07:37.998Z,5.84
2022-12-23T06:10:07.246Z,5.85
2022-12-23T06:12:35.347Z,5.85
2022-12-23T06:15:04.256Z,5.87
2022-12-23T06:17:31.994Z,5.88
2022-12-23T06:20:00.017Z,5.90
2022-12-23T06:22:27.764Z,5.93
2022-12-23T06:24:55.443Z,5.95
2022-12-23T06:27:23.099Z,5.97
2022-12-23T06:29:50.778Z,5.98
2022-12-23T06:32:18.550Z,6.00
2022-12-23T06:34:46.908Z,6.00
2022-12-23T06:37:14.898Z,6.03
2022-12-23T06:39:42.541Z,6.04
2022-12-23T06:42:10.173Z,6.05
2022-12-23T06:44:37.807Z,6.06
2022-12-23T06:47:05.599Z,6.07
2022-12-23T06:49:33.300Z,6.08
2022-12-23T06:52:01.052Z,6.08
2022-12-23T06:54:28.655Z,6.09
2022-12-23T06:56:56.479Z,6.10
2022-12-23T06:59:24.228Z,6.09
2022-12-23T07:01:51.934Z,6.09
2022-12-23T07:04:19.691Z,6.09
2022-12-23T07:06:47.380Z,6.08
2022-12-23T07:09:15.439Z,6.08
2022-12-23T07:11:43.111Z,6.07
2022-12-23T07:14:11.624Z,6.06
2022-12-23T07:16:39.357Z,6.07
2022-12-23T07:19:07.091Z,6.08
2022-12-23T07:21:36.684Z,6.09
2022-12-23T07:24:05.327Z,6.11
2022-12-23T07:26:33.021Z,6.12
2022-12-23T07:29:01.650Z,6.14
2022-12-23T07:31:29.359Z,6.16
2022-12-23T07:33:57.026Z,6.17
2022-12-23T07:36:24.710Z,6.20
2022-12-23T07:38:52.387Z,6.22
2022-12-23T07:41:20.079Z,6.23
2022-12-23T07:43:47.815Z,6.24
2022-12-23T07:46:15.646Z,6.24
2022-12-23T07:48:43.409Z,6.25
2022-12-23T07:51:11.112Z,6.26
2022-12-23T07:53:38.811Z,6.26
2022-12-23T07:56:06.739Z,6.26
2022-12-23T07:58:34.411Z,6.25
2022-12-23T08:01:08.088Z,6.26
2022-12-23T08:03:36.764Z,6.27
2022-12-23T08:06:12.564Z,6.28
2022-12-23T08:08:41.351Z,6.30
2022-12-23T08:11:10.578Z,6.31
2022-12-23T08:13:40.643Z,6.33
2022-12-23T08:16:09.176Z,6.32
2022-12-23T08:18:39.030Z,6.32
2022-12-23T08:21:10.648Z,6.31
2022-12-23T08:23:38.300Z,6.29
2022-12-23T08:26:09.769Z,6.28
2022-12-23T08:28:38.464Z,6.25
2022-12-23T08:31:12.134Z,6.23
2022-12-23T08:33:42.151Z,6.22
2022-12-23T08:36:17.627Z,6.21
2022-12-23T08:38:51.935Z,6.20
2022-12-23T08:41:24.049Z,6.18
2022-12-23T08:43:52.007Z,6.18
2022-12-23T08:46:20.315Z,6.18
2022-12-23T08:48:49.654Z,6.18
2022-12-23T08:51:19.808Z,6.15
2022-12-23T08:53:47.605Z,6.15
2022-12-23T08:56:21.108Z,6.13
2022-12-23T08:58:51.140Z,6.13
2022-12-23T09:01:21.201Z,6.13
2022-12-23T09:03:49.052Z,6.14
2022-12-23T09:06:21.885Z,6.14
2022-12-23T09:08:52.650Z,6.16
2022-12-23T09:11:23.543Z,6.19
2022-12-23T09:13:51.367Z,6.20
2022-12-23T09:16:19.299Z,6.22
2022-12-23T09:18:47.101Z,6.24
2022-12-23T09:21:18.127Z,6.24
2022-12-23T09:23:46.563Z,6.25
2022-12-23T09:26:20.391Z,6.26
2022-12-23T09:28:48.148Z,6.28
2022-12-23T09:31:16.148Z,6.29
2022-12-23T09:33:47.200Z,6.31
2022-12-23T09:36:14.946Z,6.33
2022-12-23T09:38:42.863Z,6.36
2022-12-23T09:41:32.742Z,6.38
2022-12-23T09:44:24.322Z,6.39
2022-12-23T09:46:56.099Z,6.39
2022-12-23T09:49:24.041Z,6.42
2022-12-23T09:51:54.146Z,6.45
2022-12-23T09:54:28.952Z,6.47
2022-12-23T09:57:03.546Z,6.49
2022-12-23T09:59:52.122Z,6.51
2022-12-23T10:02:57.524Z,6.54
2022-12-23T10:05:32.658Z,6.55
2022-12-23T10:08:08.944Z,6.57
2022-12-23T10:10:52.884Z,6.61
2022-12-23T10:13:42.504Z,6.64
2022-12-23T10:16:18.611Z,6.67
2022-12-23T10:18:53.726Z,6.70
2022-12-23T10:21:47.117Z,6.75
2022-12-23T10:24:26.208Z,6.79
2022-12-23T10:26:57.156Z,6.83
2022-12-23T10:29:31.446Z,6.89
2022-12-23T10:32:05.326Z,6.95
2022-12-23T10:34:48.976Z,7.01
2022-12-23T10:37:29.279Z,7.05
2022-12-23T10:40:05.097Z,7.11
2022-12-23T10:42:42.341Z,7.17
2022-12-23T10:45:25.441Z,7.23
2022-12-23T10:48:06.065Z,7.28
2022-12-23T10:50:47.467Z,7.32
2022-12-23T10:53:40.463Z,7.40
2022-12-23T10:56:09.190Z,7.45
2022-12-23T10:58:40.568Z,7.50
2022-12-23T11:01:15.211Z,7.52
2022-12-23T11:04:02.495Z,7.53
2022-12-23T11:06:37.413Z,7.50
2022-12-23T11:09:06.686Z,7.47
2022-12-23T11:11:56.001Z,7.46
2022-12-23T11:14:42.199Z,7.46
2022-12-23T11:17:25.318Z,7.44
2022-12-23T11:20:12.422Z,7.43
2022-12-23T11:22:48.977Z,7.43
2022-12-23T11:25:32.392Z,7.46
2022-12-23T11:28:07.632Z,7.47
2022-12-23T11:30:38.878Z,7.48
2022-12-23T11:33:06.596Z,7.48
2022-12-23T11:35:36.606Z,7.48
2022-12-23T11:38:04.503Z,7.47
2022-12-23T11:40:36.192Z,7.45
2022-12-23T11:43:06.589Z,7.44
2022-12-23T11:45:36.807Z,7.42
2022-12-23T11:48:06.125Z,7.39
2022-12-23T11:50:36.198Z,7.39
2022-12-23T11:53:12.643Z,7.39
2022-12-23T11:55:46.925Z,7.36
2022-12-23T11:58:20.049Z,7.35
2022-12-23T12:00:56.143Z,7.33
2022-12-23T12:03:28.928Z,7.32
2022-12-23T12:05:59.996Z,7.30
2022-12-23T12:08:34.052Z,7.28
2022-12-23T12:11:05.946Z,7.27
2022-12-23T12:13:39.748Z,7.25
2022-12-23T12:16:26.604Z,7.24
2022-12-23T12:18:56.153Z,7.22
2022-12-23T12:21:28.397Z,7.22
2022-12-23T12:24:22.287Z,7.23
2022-12-23T12:26:52.962Z,7.21
2022-12-23T12:29:38.906Z,7.23
2022-12-23T12:32:30.336Z,7.24
2022-12-23T12:35:06.350Z,7.25
2022-12-23T12:37:41.808Z,7.26
2022-12-23T12:40:26.034Z,7.29
2022-12-23T12:43:19.486Z,7.29
2022-12-23T12:45:53.976Z,7.28
2022-12-23T12:49:01.347Z,7.27
2022-12-23T12:51:57.083Z,7.26
2022-12-23T12:54:24.781Z,7.23
2022-12-23T12:56:55.352Z,7.25
2022-12-23T12:59:28.479Z,7.25
2022-12-23T13:02:31.163Z,7.26
2022-12-23T13:05:12.739Z,7.26
2022-12-23T13:07:58.182Z,7.26
2022-12-23T13:10:57.997Z,7.26
2022-12-23T13:13:45.575Z,7.25
2022-12-23T13:16:16.388Z,7.25
2022-12-23T13:19:04.138Z,7.26
2022-12-23T13:21:39.409Z,7.27
2022-12-23T13:24:25.813Z,7.28
2022-12-23T13:27:06.658Z,7.29
2022-12-23T13:29:44.049Z,7.30
2022-12-23T13:32:26.872Z,7.29
2022-12-23T13:35:08.919Z,7.30
2022-12-23T13:37:50.362Z,7.30
2022-12-23T13:40:56.080Z,7.30
2022-12-23T13:43:25.449Z,7.29
2022-12-23T13:45:54.468Z,7.29
2022-12-23T13:49:10.439Z,7.31
2022-12-23T13:52:10.462Z,7.29
2022-12-23T13:54:50.604Z,7.28
2022-12-23T13:57:27.821Z,7.29
2022-12-23T14:00:18.545Z,7.29
2022-12-23T14:02:58.288Z,7.30
2022-12-23T14:05:36.746Z,7.31
2022-12-23T14:08:07.675Z,7.32
2022-12-23T14:10:35.616Z,7.34
2022-12-23T14:13:06.190Z,7.35
2022-12-23T14:16:31.243Z,7.37
2022-12-23T14:19:14.208Z,7.35
2022-12-23T14:22:07.424Z,7.36
2022-12-23T14:25:14.157Z,7.36
2022-12-23T14:28:16.073Z,7.36
2022-12-23T14:30:47.067Z,7.36
2022-12-23T14:33:25.921Z,7.38
2022-12-23T14:35:56.608Z,7.40
2022-12-23T14:38:26.735Z,7.42
2022-12-23T14:41:00.106Z,7.43
2022-12-23T14:43:31.652Z,7.45
2022-12-23T14:46:00.283Z,7.46
2022-12-23T14:48:33.848Z,7.47
2022-12-23T14:51:13.952Z,7.48
2022-12-23T14:53:59.723Z,7.48
2022-12-23T14:56:40.269Z,7.48
2022-12-23T14:59:09.046Z,7.48
2022-12-23T15:01:47.720Z,7.48
2022-12-23T15:04:27.875Z,7.49
2022-12-23T15:07:02.226Z,7.48
2022-12-23T15:09:38.879Z,7.48
2022-12-23T15:12:14.129Z,7.49
2022-12-23T15:14:46.151Z,7.49
2022-12-23T15:17:32.422Z,7.50
2022-12-23T15:20:13.193Z,7.50
2022-12-23T15:22:43.694Z,7.51
2022-12-23T15:25:30.681Z,7.51
2022-12-23T15:28:02.138Z,7.52
2022-12-23T15:30:34.169Z,7.53
2022-12-23T15:33:06.394Z,7.54
2022-12-23T15:35:45.831Z,7.55
2022-12-23T15:38:16.133Z,7.56
2022-12-23T15:40:44.458Z,7.58
2022-12-23T15:43:23.891Z,7.60
2022-12-23T15:45:52.563Z,7.61
2022-12-23T15:48:24.540Z,7.63
2022-12-23T15:50:55.851Z,7.65
2022-12-23T15:53:28.542Z,7.66
2022-12-23T15:55:56.267Z,7.68
2022-12-23T15:58:24.543Z,7.68
2022-12-23T16:00:58.040Z,7.70
2022-12-23T16:03:35.101Z,7.70
2022-12-23T16:06:16.238Z,7.72
2022-12-23T16:08:44.861Z,7.72
2022-12-23T16:11:15.783Z,7.74
2022-12-23T16:14:02.070Z,7.75
2022-12-23T16:16:33.216Z,7.76
2022-12-23T16:19:01.034Z,7.77
2022-12-23T16:21:32.204Z,7.78
2022-12-23T16:24:00.550Z,7.78
2022-12-23T16:26:28.598Z,7.80
2022-12-23T16:28:59.433Z,7.81
2022-12-23T16:31:27.380Z,7.81
2022-12-23T16:33:56.945Z,7.81
2022-12-23T16:36:27.871Z,7.81
2022-12-23T16:39:06.768Z,7.82
2022-12-23T16:41:35.020Z,7.81
2022-12-23T16:44:03.122Z,7.82
2022-12-23T16:46:37.320Z,7.82
2022-12-23T16:49:10.973Z,7.82
2022-12-23T16:51:39.216Z,7.82
2022-12-23T16:54:13.102Z,7.82
2022-12-23T16:56:41.446Z,7.82
2022-12-23T16:59:09.691Z,7.82
2022-12-23T17:01:40.270Z,7.83
2022-12-23T17:04:08.624Z,7.83
2022-12-23T17:06:37.398Z,7.84
2022-12-23T17:09:07.141Z,7.84
2022-12-23T17:11:37.874Z,7.82
2022-12-23T17:14:11.877Z,7.83
2022-12-23T17:16:41.385Z,7.83
2022-12-23T17:19:09.245Z,7.82
2022-12-23T17:21:38.974Z,7.83
2022-12-23T17:24:27.474Z,7.83
2022-12-23T17:26:56.981Z,7.83
2022-12-23T17:29:25.351Z,7.82
2022-12-23T17:31:53.183Z,7.83
2022-12-23T17:34:23.082Z,7.83
2022-12-23T17:36:51.576Z,7.83
2022-12-23T17:39:21.501Z,7.84
2022-12-23T17:41:49.401Z,7.84
2022-12-23T17:44:17.770Z,7.84
2022-12-23T17:46:46.487Z,7.84
2022-12-23T17:49:14.184Z,7.83
2022-12-23T17:51:42.480Z,7.83
2022-12-23T17:54:21.674Z,7.82
2022-12-23T17:56:50.033Z,7.82
2022-12-23T17:59:17.950Z,7.82
2022-12-23T18:01:45.809Z,7.81
2022-12-23T18:04:13.696Z,7.81
2022-12-23T18:06:41.434Z,7.79
2022-12-23T18:09:09.085Z,7.78
2022-12-23T18:11:41.205Z,7.77
2022-12-23T18:14:18.250Z,7.76
2022-12-23T18:16:46.539Z,7.74
2022-12-23T18:19:19.852Z,7.73
2022-12-23T18:21:47.818Z,7.70
2022-12-23T18:24:16.058Z,7.70
2022-12-23T18:26:44.778Z,7.67
2022-12-23T18:29:12.573Z,7.65
2022-12-23T18:31:50.512Z,7.63
2022-12-23T18:34:20.894Z,7.59
2022-12-23T18:36:48.932Z,7.56
2022-12-23T18:39:16.866Z,7.54
2022-12-23T18:41:44.497Z,7.53
2022-12-23T18:44:18.215Z,7.50
2022-12-23T18:46:46.529Z,7.47
2022-12-23T18:49:14.255Z,7.44
2022-12-23T18:51:41.871Z,7.42
2022-12-23T18:54:14.209Z,7.39
2022-12-23T18:56:42.633Z,7.37
2022-12-23T18:59:25.702Z,7.34
2022-12-23T19:01:57.559Z,7.31
2022-12-23T19:04:26.595Z,7.30
2022-12-23T19:06:55.730Z,7.30
2022-12-23T19:09:24.064Z,7.30
2022-12-23T19:11:52.855Z,7.29
2022-12-23T19:14:20.681Z,7.29
2022-12-23T19:16:51.860Z,7.30
2022-12-23T19:19:21.468Z,7.29
2022-12-23T19:21:49.218Z,7.30
2022-12-23T19:24:17.488Z,7.31
2022-12-23T19:26:45.234Z,7.32
2022-12-23T19:29:12.860Z,7.31
2022-12-23T19:31:40.829Z,7.30
2022-12-23T19:34:14.534Z,7.26
2022-12-23T19:36:44.059Z,7.22
2022-12-23T19:39:17.290Z,7.20
2022-12-23T19:41:45.643Z,7.19
2022-12-23T19:44:14.269Z,7.18
2022-12-23T19:46:42.244Z,7.17
2022-12-23T19:49:17.499Z,7.16
2022-12-23T19:51:48.451Z,7.16
2022-12-23T19:54:17.116Z,7.17
2022-12-23T19:56:44.922Z,7.19
2022-12-23T19:59:12.773Z,7.19
2022-12-23T20:01:40.492Z,7.20
2022-12-23T20:04:09.611Z,7.20
2022-12-23T20:06:38.353Z,7.19
2022-12-23T20:09:07.775Z,7.17
2022-12-23T20:11:38.072Z,7.16
2022-12-23T20:14:06.291Z,7.14
2022-12-23T20:16:34.326Z,7.13
2022-12-23T20:19:02.526Z,7.12
2022-12-23T20:21:30.406Z,7.11
2022-12-23T20:23:58.191Z,7.11
2022-12-23T20:26:27.265Z,7.11
2022-12-23T20:28:55.915Z,7.11
2022-12-23T20:31:28.543Z,7.10
2022-12-23T20:33:57.396Z,7.08
2022-12-23T20:36:29.422Z,7.06
2022-12-23T20:38:58.021Z,7.04
2022-12-23T20:41:27.846Z,7.04
2022-12-23T20:46:43.517Z,7.02
2022-12-23T20:49:11.366Z,7.01
2022-12-23T20:51:39.019Z,7.00
2022-12-23T20:54:06.757Z,7.00
2022-12-23T20:56:34.424Z,6.99
2022-12-23T20:59:03.838Z,6.99
2022-12-23T21:01:37.762Z,7.00
2022-12-23T21:04:08.239Z,7.00
2022-12-23T21:06:36.232Z,6.98
2022-12-23T21:09:06.721Z,6.99
2022-12-23T21:11:37.998Z,6.99
2022-12-23T21:14:07.605Z,6.98
2022-12-23T21:16:37.406Z,6.97
2022-12-23T21:19:07.451Z,6.96
2022-12-23T21:21:35.280Z,6.96
2022-12-23T21:24:04.483Z,6.96
2022-12-23T21:26:34.067Z,6.96
2022-12-23T21:29:03.879Z,6.95
2022-12-23T21:31:33.991Z,6.94
2022-12-23T21:34:01.895Z,6.94
2022-12-23T21:36:32.544Z,6.94
2022-12-23T21:39:00.633Z,6.93
2022-12-23T21:41:30.624Z,6.92
2022-12-23T21:44:00.133Z,6.92
2022-12-23T21:46:28.877Z,6.91
2022-12-23T21:48:57.675Z,6.90
2022-12-23T21:51:36.944Z,6.90
2022-12-23T21:54:08.560Z,6.90
2022-12-23T21:56:36.666Z,6.90
2022-12-23T21:59:07.131Z,6.89
2022-12-23T22:01:35.162Z,6.87
2022-12-23T22:04:02.930Z,6.86
2022-12-23T22:06:37.638Z,6.85
2022-12-23T22:09:06.502Z,6.81
2022-12-23T22:11:35.612Z,6.81
2022-12-23T22:14:05.100Z,6.80
2022-12-23T22:16:33.957Z,6.80
2022-12-23T22:19:02.834Z,6.79
2022-12-23T22:21:31.923Z,6.75
2022-12-23T22:23:59.972Z,6.75
2022-12-23T22:26:30.718Z,6.74
2022-12-23T22:29:00.308Z,6.73
2022-12-23T22:31:34.141Z,6.70
2022-12-23T22:34:02.171Z,6.64
2022-12-23T22:36:30.494Z,6.55
2022-12-23T22:39:00.029Z,6.48
2022-12-23T22:41:29.315Z,6.41
2022-12-23T22:43:57.718Z,6.36
2022-12-23T22:46:26.050Z,6.33
2022-12-23T22:48:54.597Z,6.33
2022-12-23T22:51:30.094Z,6.35
2022-12-23T22:53:58.280Z,6.36
2022-12-23T22:56:26.754Z,6.39
2022-12-23T22:58:55.189Z,6.40
2022-12-23T23:01:29.209Z,6.41
2022-12-23T23:03:58.570Z,6.41
2022-12-23T23:06:29.287Z,6.40
2022-12-23T23:08:57.959Z,6.37
2022-12-23T23:11:26.888Z,6.34
2022-12-23T23:13:55.561Z,6.30
2022-12-23T23:16:24.690Z,6.31
2022-12-23T23:18:53.035Z,6.32
2022-12-23T23:21:21.640Z,6.32
2022-12-23T23:23:49.949Z,6.32
2022-12-23T23:26:19.210Z,6.34
2022-12-23T23:28:47.053Z,6.33
2022-12-23T23:34:03.030Z,6.28
2022-12-23T23:36:30.888Z,6.30
2022-12-23T23:38:58.644Z,6.33
2022-12-23T23:41:26.349Z,6.35
2022-12-23T23:43:54.112Z,6.35
2022-12-23T23:46:21.927Z,6.33
2022-12-23T23:48:49.733Z,6.32
2022-12-23T23:51:17.469Z,6.34
2022-12-23T23:53:45.424Z,6.37
2022-12-23T23:56:13.339Z,6.40
2022-12-23T23:58:41.015Z,6.43
